Current Month

Pierce College

Hourly Data | America/Los_Angeles
as of 2/7/23 7:56 PM PST
Date & Time Temp Max (°F) Temp Min (°F) RH (%) Dew Pt (°F) Latest Rain (In) Soil Temp (°F) Soil Moist (%) Wind Spd (mph) Wind Dir (°) Wind Gust (mph) Leaf Wet Raw (mV) Net Radiation (W/m²) Evap Pan Max Wind (mph) Evap Pan H2O Max Temp (°F) Evap Pan Level (In)
2/7/23 - 1900 63.0 61.6 21 22.1 0.00 56.8 46.5 1.1 N | 350 5.4 264 -77 3.3 95.4 7.5
2/7/23 - 1800 66.5 62.8 19 21.3 0.00 56.5 46.5 0.7 NNW | 340 7.2 264 -84 4.6 101.3 7.5
2/7/23 - 1700 69.2 66.4 16 20.9 0.00 56.4 46.3 1.9 N | 352 9.5 263 -8 5.2 114.1 7.5
2/7/23 - 1600 70.4 68.9 16 21.1 0.00 55.9 46.2 2.7 N | 356 10.0 263 148 5.8 115.5 7.5
2/7/23 - 1500 70.8 69.5 16 21.2 0.00 55.5 46.2 3.1 N | 356 11.9 262 274 5.8 112.9 7.5
2/7/23 - 1400 70.7 69.3 16 21.2 0.00 55.2 46.2 3.8 N | 5 15.2 262 365 6.2 104.4 7.6
2/7/23 - 1300 70.1 68.6 16 21.8 0.00 55.0 46.1 3.9 N | 1 15.2 262 416 7.4 101.9 7.6
2/7/23 - 1200 69.4 67.2 17 22.1 0.00 55.0 46.1 4.2 N | 6 13.3 263 413 6.0 95.7 7.6
2/7/23 - 1100 67.6 65.1 18 21.6 0.00 55.2 46.2 3.5 N | 2 10.5 263 361 6.0 77.7 7.6
2/7/23 - 1000 65.3 61.9 20 22.1 0.00 54.7 46.3 2.7 N | 2 10.1 263 267 5.2 64.9 7.6
2/7/23 - 0900 62.1 57.9 23 21.9 0.00 55.5 46.4 1.9 N | 357 7.9 264 133 5.3 59.8 7.6
2/7/23 - 0800 57.8 47.2 32 23.0 0.00 55.6 46.5 1.6 S | 188 4.9 266 -28 3.4 57.6 7.6
2/7/23 - 0700 49.3 45.7 38 22.9 0.00 55.9 46.5 1.6 S | 187 5.1 266 -63 2.2 58.4 7.6
2/7/23 - 0600 53.7 48.2 33 22.1 0.00 56.0 46.6 2.3 SSW | 211 5.0 266 -67 3.1 58.3 7.6
2/7/23 - 0500 54.1 46.6 31 21.8 0.00 56.3 46.6 2.1 SSW | 194 9.2 266 -70 4.8 59.2 7.6
2/7/23 - 0400 53.8 52.1 29 21.8 0.00 56.2 46.6 1.0 N | 352 5.0 266 -73 2.4 60.8 7.6
2/7/23 - 0300 56.7 52.1 27 21.3 0.00 56.3 46.6 1.7 N | 1 7.6 266 -75 3.8 62.4 7.6
2/7/23 - 0200 55.7 50.2 29 22.0 0.00 56.6 46.7 2.1 SSW | 208 5.9 266 -73 3.0 63.5 7.6
2/7/23 - 0100 55.9 54.8 27 21.5 0.00 56.6 46.7 2.8 N | 7 7.3 266 -77 2.3 65.4 7.6
2/7/23 - 0000 57.3 55.0 26 21.3 0.00 56.6 46.7 1.8 N | 2 6.6 266 -76 2.7 67.7 7.6
2/6/23 - 2300 57.2 55.0 26 21.5 0.00 56.8 46.7 1.7 NNE | 13 10.0 266 -79 3.3 70.2 7.6
2/6/23 - 2200 55.3 51.8 29 23.3 0.00 57.0 46.7 1.8 NW | 306 7.3 266 -78 4.4 74.6 7.6
2/6/23 - 2100 54.2 51.1 33 23.9 0.00 56.8 46.7 1.5 SSW | 202 5.0 266 -75 2.9 80.6 7.6
2/6/23 - 2000 55.4 50.6 31 23.6 0.00 56.9 46.8 1.7 SSW | 213 6.1 266 -77 3.2 90.0 7.6
2/6/23 - 1900 58.7 54.7 27 23.5 0.00 56.8 46.8 1.9 WSW | 258 6.0 266 -83 4.4 95.7 7.6
2/6/23 - 1800 62.5 58.7 26 25.2 0.00 56.4 46.8 1.4 NNW | 339 5.5 265 -86 6.3 95.7 7.6
2/6/23 - 1700 65.5 62.4 19 21.5 0.00 56.3 46.7 2.7 N | 1 9.6 264 -12 4.4 100.8 7.7
2/6/23 - 1600 66.7 65.2 20 23.1 0.00 55.8 46.7 3.0 N | 1 12.0 264 146 5.9 102.4 7.7
2/6/23 - 1500 66.4 65.4 21 25.3 0.00 55.6 46.6 3.8 N | 4 11.6 263 275 5.8 101.5 7.7
2/6/23 - 1400 67.4 65.9 19 22.6 0.00 55.3 46.6 3.1 N | 2 10.1 263 367 5.4 100.1 7.7
2/6/23 - 1300 66.4 63.8 21 24.1 0.00 55.2 46.6 4.2 NNE | 13 12.1 264 418 5.4 97.9 7.7
2/6/23 - 1200 65.7 63.1 23 25.7 0.00 55.1 46.6 2.8 N | 0 12.1 264 416 6.4 82.8 7.7
2/6/23 - 1100 64.2 58.8 28 28.6 0.00 55.2 46.6 1.5 NW | 310 8.3 265 362 7.2 71.4 7.7
2/6/23 - 1000 59.5 56.0 34 29.6 0.00 55.3 46.7 1.4 NW | 307 5.3 266 267 4.2 61.5 7.7
2/6/23 - 0900 56.6 50.9 39 30.1 0.00 55.7 46.8 1.0 N | 6 5.9 266 136 3.5 56.5 7.7
2/6/23 - 0800 51.1 42.9 51 29.4 0.00 55.7 46.8 2.0 SSW | 212 6.2 268 -31 4.0 56.0 7.7
2/6/23 - 0700 48.0 42.7 51 28.7 0.00 57.4 46.9 1.4 S | 178 4.8 269 -67 3.4 56.3 7.7
2/6/23 - 0600 49.1 46.3 48 29.1 0.00 56.7 46.9 2.3 S | 179 7.0 269 -73 5.2 58.2 7.7
2/6/23 - 0500 50.3 48.8 44 28.6 0.00 56.1 47.0 2.4 NNW | 333 13.6 268 -75 9.6 58.7 7.7
2/6/23 - 0400 50.2 49.1 45 29.2 0.00 56.6 47.0 2.1 NNW | 343 11.6 268 -76 8.4 60.0 7.7
2/6/23 - 0300 50.2 49.0 48 30.8 0.00 56.6 47.0 2.6 N | 349 12.7 269 -74 8.4 61.5 7.7
2/6/23 - 0200 50.0 48.6 48 30.8 0.00 55.3 47.1 2.3 N | 9 7.8 269 -73 4.5 62.5 7.7
2/6/23 - 0100 50.4 49.3 47 30.5 0.00 55.7 47.1 1.4 N | 350 10.8 269 -75 6.7 63.4 7.7
2/6/23 - 0000 51.0 49.9 48 31.7 0.00 57.2 47.2 2.5 N | 350 8.7 269 -73 6.0 67.3 7.7
2/5/23 - 2300 51.3 50.7 49 32.4 0.00 57.3 47.3 2.3 NNW | 334 10.6 269 -62 8.8 69.7 7.7
2/5/23 - 2200 51.1 47.7 62 37.0 0.00 57.2 47.3 1.3 NW | 310 7.6 270 -69 4.8 74.2 7.8
2/5/23 - 2100 50.9 47.8 72 40.7 0.00 56.4 47.3 1.8 SSW | 212 3.8 272 -67 2.4 79.8 7.8
2/5/23 - 2000 52.1 50.6 67 41.0 0.00 55.9 47.3 3.7 SW | 229 7.6 270 -72 5.7 89.6 7.8
2/5/23 - 1900 53.8 51.9 62 40.2 0.00 58.1 47.3 4.0 SW | 220 7.3 270 -74 5.4 93.0 7.8
2/5/23 - 1800 56.9 53.6 56 39.8 0.00 58.0 47.3 4.3 SW | 225 9.1 269 -72 6.3 94.3 7.8
2/5/23 - 1700 60.6 56.6 47 38.2 0.00 58.3 47.3 7.6 WSW | 243 14.7 268 -1 9.9 103.7 7.8
2/5/23 - 1600 62.4 60.3 44 39.1 0.00 56.5 47.1 6.7 SW | 235 12.0 267 150 8.1 114.4 7.8
2/5/23 - 1500 63.8 61.3 46 41.1 0.00 57.9 47.1 6.8 WSW | 246 12.9 266 280 10.0 114.9 7.8
2/5/23 - 1400 66.0 63.2 45 42.9 0.00 57.5 47.1 4.8 WSW | 239 11.1 267 391 7.8 113.3 7.8
2/5/23 - 1300 65.4 62.7 46 43.1 0.00 55.4 47.0 2.6 SW | 224 8.1 267 395 6.0 98.8 7.8
2/5/23 - 1200 65.4 61.3 51 44.3 0.00 55.5 47.0 2.8 SW | 226 7.3 268 417 5.7 95.8 7.8
2/5/23 - 1100 62.6 59.3 58 46.0 0.00 55.6 47.0 3.0 WSW | 254 7.3 268 391 5.2 89.4 7.8
2/5/23 - 1000 60.6 56.9 68 48.4 0.00 55.5 47.1 2.4 WSW | 253 6.2 269 315 4.6 77.2 7.8
2/5/23 - 0900 57.7 54.0 86 51.4 0.00 55.4 47.0 3.0 SW | 235 7.6 272 183 5.0 71.5 7.8
2/5/23 - 0800 54.2 51.9 93 50.7 0.00 55.6 47.0 0.1 SSE | 158 1.3 317 47 0.0 68.4 7.8
2/5/23 - 0700 52.1 51.3 92 49.6 0.00 55.6 47.0 0.2 NE | 38 2.2 339 -1 0.0 68.9 7.8
2/5/23 - 0600 51.6 51.2 92 49.0 0.00 55.5 47.0 0.0 E | 96 0.9 352 -2 0.0 68.9 7.8
2/5/23 - 0500 52.0 51.3 91 49.1 0.03 55.5 47.0 0.1 N | 3 1.6 422 -1 1.1 68.0 7.8
2/5/23 - 0400 52.4 51.6 88 48.8 0.00 55.8 47.0 0.3 ENE | 70 2.1 475 -2 0.0 69.3 7.8
2/5/23 - 0300 52.0 49.9 89 47.7 0.00 55.8 47.0 0.1 ENE | 61 1.1 280 -4 0.0 69.3 7.8
2/5/23 - 0200 51.3 48.8 88 46.2 0.00 55.8 47.0 0.2 SSE | 162 1.9 283 -22 0.0 69.8 7.8
2/5/23 - 0100 52.9 51.2 85 48.1 0.00 55.9 47.0 0.5 SW | 214 3.3 277 -29 1.8 72.0 7.8
2/5/23 - 0000 53.5 52.5 85 48.6 0.00 56.0 47.0 1.3 SW | 220 5.1 276 -28 3.5 73.6 7.8
2/4/23 - 2300 52.8 49.9 83 46.3 0.00 56.2 47.0 0.9 SSW | 211 4.5 276 -43 2.7 76.9 7.8
2/4/23 - 2200 52.4 49.9 76 43.6 0.00 56.0 47.0 0.5 SSW | 205 2.1 273 -51 0.0 81.9 7.8
2/4/23 - 2100 56.1 52.1 62 40.8 0.00 55.9 47.0 0.9 SW | 216 5.2 270 -56 3.3 89.6 7.8
2/4/23 - 2000 58.6 55.3 46 36.1 0.00 55.9 47.0 1.7 WSW | 247 4.2 267 -61 1.6 93.5 7.8
2/4/23 - 1900 60.6 58.1 44 37.1 0.00 55.5 47.0 2.9 SW | 223 6.4 266 -63 2.6 95.6 7.8
2/4/23 - 1800 65.5 60.4 40 38.0 0.00 55.2 46.9 3.3 SW | 230 7.3 266 -67 4.8 96.9 7.8
2/4/23 - 1700 71.0 65.4 36 40.5 0.00 54.7 46.8 3.4 W | 263 7.7 266 -3 5.1 100.1 7.9
2/4/23 - 1600 73.4 70.3 33 41.0 0.00 54.4 46.7 4.9 WSW | 248 8.6 266 143 6.3 99.5 7.9
2/4/23 - 1500 74.9 72.5 27 38.0 0.00 54.0 46.6 3.2 WSW | 239 7.2 264 250 5.2 98.6 7.9
2/4/23 - 1400 75.8 73.4 23 34.2 0.00 53.6 46.6 3.0 SW | 227 6.8 264 343 4.9 95.9 7.9
2/4/23 - 1300 75.4 72.3 22 32.3 0.00 53.4 46.5 1.9 WSW | 247 6.2 263 388 4.9 83.0 7.9
2/4/23 - 1200 74.1 66.8 26 34.2 0.00 53.4 46.5 0.6 N | 352 3.3 264 398 2.7 72.9 7.9
2/4/23 - 1100 67.3 61.7 31 33.4 0.00 53.6 46.5 0.5 NNE | 26 2.4 265 345 2.3 61.5 7.9
2/4/23 - 1000 62.5 54.0 39 33.7 0.00 53.7 46.6 0.6 NE | 36 2.4 266 250 1.2 56.6 7.9
2/4/23 - 0900 54.1 44.2 56 34.7 0.00 53.8 46.7 0.4 NE | 37 2.3 267 133 0.0 53.7 7.9
2/4/23 - 0800 44.1 36.4 79 32.8 0.00 54.1 46.7 0.1 SE | 138 1.4 271 -5 0.0 51.0 7.9
2/4/23 - 0700 37.2 36.0 81 31.2 0.00 54.2 46.7 0.1 S | 174 1.2 276 -47 0.0 51.6 7.9
2/4/23 - 0600 37.7 36.7 79 31.3 0.00 54.2 46.8 0.1 S | 170 0.9 276 -50 0.0 52.3 7.9
2/4/23 - 0500 38.1 37.3 78 31.3 0.00 53.5 46.8 0.1 SSE | 162 1.1 273 -52 0.0 54.9 7.9
2/4/23 - 0400 39.1 37.6 76 31.6 0.00 54.8 46.9 0.1 S | 182 1.1 272 -53 0.0 57.2 7.9
2/4/23 - 0300 40.3 38.9 74 32.0 0.00 56.6 46.9 0.2 S | 172 1.2 272 -54 0.0 58.4 7.9
2/4/23 - 0200 41.7 39.8 71 32.1 0.00 56.1 47.0 0.3 S | 180 1.3 271 -55 0.0 60.7 7.9
2/4/23 - 0100 43.1 41.5 67 32.1 0.00 56.1 47.0 0.2 S | 175 1.3 270 -56 0.0 62.1 7.9
2/4/23 - 0000 44.6 42.3 63 31.5 0.00 56.0 47.1 0.6 S | 189 3.3 269 -57 0.0 65.0 7.9
2/3/23 - 2300 46.3 44.4 57 31.0 0.00 55.5 47.1 0.1 SW | 222 1.2 268 -58 0.0 69.4 7.9
2/3/23 - 2200 49.0 45.9 53 31.2 0.00 55.6 47.0 0.1 SE | 131 1.6 268 -61 0.1 74.3 7.9
2/3/23 - 2100 54.2 48.8 45 31.3 0.00 55.6 47.1 0.6 SW | 221 3.3 267 -67 1.9 80.7 7.9
2/3/23 - 2000 55.7 54.0 38 29.8 0.00 55.2 47.1 1.9 SSW | 206 5.5 266 -73 3.0 90.6 7.9
2/3/23 - 1900 58.7 55.5 35 29.7 0.00 55.0 47.1 3.1 SSW | 213 6.8 266 -77 5.2 96.0 8.0
2/3/23 - 1800 63.9 58.4 35 33.1 0.00 54.9 47.0 2.6 WSW | 240 6.8 266 -64 4.1 99.1 8.0
2/3/23 - 1700 66.9 63.8 29 32.2 0.00 54.4 47.0 3.1 SSW | 209 6.6 265 -18 4.4 101.1 8.0
2/3/23 - 1600 72.3 66.9 18 24.1 0.00 54.3 46.9 2.1 S | 172 6.0 264 85 4.6 101.7 8.0
2/3/23 - 1500 73.8 70.9 14 21.3 0.00 53.7 46.7 1.5 SSW | 210 6.6 262 260 4.4 99.0 8.0
2/3/23 - 1400 72.8 69.6 16 22.7 0.00 53.3 46.8 2.1 SW | 225 5.7 262 355 4.4 96.8 8.0
2/3/23 - 1300 73.3 70.1 17 23.8 0.00 52.9 46.7 0.7 N | 353 3.6 262 352 3.7 84.4 8.0
2/3/23 - 1200 71.2 67.4 19 25.7 0.00 52.9 46.6 0.7 N | 5 3.9 263 372 3.0 74.5 8.0
2/3/23 - 1100 68.6 61.3 26 29.3 0.00 51.7 46.7 1.1 W | 272 4.2 264 338 3.6 63.7 8.0
2/3/23 - 1000 63.0 51.0 46 35.0 0.00 51.6 46.7 0.5 NW | 324 3.9 266 203 3.3 57.7 8.0
2/3/23 - 0900 51.2 44.0 63 35.3 0.00 51.6 46.8 0.1 ESE | 122 1.3 269 61 0.0 55.2 8.0
2/3/23 - 0800 44.0 40.7 71 33.1 0.00 53.1 46.7 0.3 WSW | 237 1.6 270 -6 0.0 55.0 8.0
2/3/23 - 0700 41.3 40.6 71 32.4 0.00 53.1 46.8 0.1 S | 185 1.1 271 -32 0.0 54.7 8.0
2/3/23 - 0600 40.9 40.1 72 32.4 0.00 52.5 46.8 0.1 SSE | 158 1.2 271 -33 0.0 55.9 8.0
2/3/23 - 0500 41.4 39.4 72 32.1 0.00 53.8 46.9 0.4 SSE | 166 2.4 271 -42 0.2 56.9 8.0
2/3/23 - 0400 41.4 40.6 72 32.6 0.00 53.8 46.9 0.3 S | 172 2.5 271 -45 0.0 58.1 8.0
2/3/23 - 0300 43.5 41.1 71 33.4 0.00 54.1 46.9 0.2 S | 174 1.6 271 -48 0.0 59.7 8.0
2/3/23 - 0200 44.7 43.3 68 34.3 0.00 54.1 47.0 0.0 SW | 230 1.0 270 -40 0.0 60.0 8.0
2/3/23 - 0100 45.4 44.2 68 34.9 0.00 54.3 47.0 0.2 SSW | 203 2.1 270 -34 0.0 61.8 8.0
2/3/23 - 0000 45.5 44.6 67 34.7 0.00 54.3 47.0 0.1 SSE | 164 1.0 270 -36 0.0 63.0 8.0
2/2/23 - 2300 48.6 45.5 63 34.6 0.00 54.8 47.1 0.2 S | 181 1.4 269 -50 0.0 66.9 8.0
2/2/23 - 2200 53.7 48.3 53 34.7 0.00 54.4 47.0 0.8 SSW | 210 6.2 268 -52 3.8 71.5 8.0
2/2/23 - 2100 53.4 50.2 54 35.2 0.00 54.3 47.1 1.6 WSW | 238 5.8 268 -51 4.4 73.5 8.0
2/2/23 - 2000 53.4 50.7 48 32.9 0.00 54.1 47.0 0.6 SSW | 202 4.3 267 -52 3.0 77.0 8.0
2/2/23 - 1900 57.3 51.8 39 30.2 0.00 54.0 47.1 1.2 SW | 216 3.3 267 -63 1.5 88.1 8.0
2/2/23 - 1800 62.0 56.1 34 30.0 0.00 53.7 47.0 1.1 SSW | 208 3.2 266 -63 2.7 93.2 8.0
2/2/23 - 1700 67.4 61.9 25 27.8 0.00 53.3 47.0 1.0 S | 189 3.0 265 -22 0.0 94.3 8.0
2/2/23 - 1600 69.4 67.4 18 22.7 0.00 52.9 46.9 1.2 SSE | 148 4.3 263 110 2.4 94.0 8.1
2/2/23 - 1500 71.0 67.3 17 22.9 0.00 52.7 46.8 1.2 E | 84 4.3 263 180 2.5 89.1 8.1
2/2/23 - 1400 70.1 67.6 15 19.7 0.00 52.4 46.8 1.3 E | 91 4.5 262 266 2.7 80.8 8.1
2/2/23 - 1300 69.2 66.9 16 20.6 0.00 51.8 46.7 1.4 ESE | 102 5.2 262 301 2.9 73.2 8.1
2/2/23 - 1200 68.0 64.2 20 24.2 0.00 52.0 46.7 1.2 NE | 55 3.7 263 362 2.2 63.9 8.1
2/2/23 - 1100 64.6 60.9 25 26.1 0.00 52.1 46.7 0.8 NE | 39 3.1 264 306 1.9 57.5 8.1
2/2/23 - 1000 61.4 52.4 30 26.4 0.00 52.3 46.8 0.3 NNE | 27 1.8 264 249 0.3 52.7 8.1
2/2/23 - 0900 52.4 40.2 49 28.4 0.00 52.6 46.8 0.1 NE | 37 1.7 266 124 0.0 51.6 8.1
2/2/23 - 0800 40.3 34.1 66 25.6 0.00 52.6 46.8 0.0 SE | 136 0.7 269 -0 0.0 50.0 8.1
2/2/23 - 0700 34.3 33.2 69 24.5 0.00 53.0 46.8 0.0 S | 186 0.9 270 -50 0.0 49.1 8.1
2/2/23 - 0600 34.6 33.2 68 24.5 0.00 53.3 46.9 0.4 S | 181 2.8 271 -55 2.3 49.2 8.1
2/2/23 - 0500 35.5 34.3 66 24.7 0.00 52.7 46.9 0.1 SSE | 166 1.1 270 -55 0.8 51.1 8.1
2/2/23 - 0400 35.8 35.1 65 24.7 0.00 53.6 47.0 0.1 S | 190 1.2 270 -55 0.0 52.5 8.1
2/2/23 - 0300 36.7 35.4 64 24.8 0.00 53.7 47.0 0.2 S | 174 1.4 269 -57 0.0 54.5 8.1
2/2/23 - 0200 38.3 36.4 60 24.6 0.00 53.8 47.1 0.2 S | 179 1.5 269 -58 0.0 55.6 8.1
2/2/23 - 0100 39.7 38.0 59 25.3 0.00 54.1 47.2 0.2 S | 172 1.6 269 -59 0.0 58.9 8.1
2/2/23 - 0000 41.4 39.4 54 25.4 0.00 54.1 47.2 0.1 SSW | 194 1.3 269 -59 0.0 60.0 8.1
2/1/23 - 2300 43.0 40.8 55 26.8 0.00 54.3 47.3 0.3 S | 170 1.6 269 -60 1.5 63.4 8.1
2/1/23 - 2200 43.6 42.5 54 27.5 0.00 54.2 47.3 0.3 S | 174 2.2 268 -62 0.1 67.0 8.1
2/1/23 - 2100 46.1 43.1 53 28.8 0.00 54.2 47.3 0.4 S | 171 2.1 268 -64 1.0 73.8 8.1
2/1/23 - 2000 48.1 45.5 52 30.0 0.00 54.1 47.3 0.4 SSE | 162 2.1 268 -67 0.0 80.9 8.1
2/1/23 - 1900 53.0 47.7 42 27.8 0.00 54.0 47.3 0.5 SSE | 164 2.1 266 -70 0.0 90.6 8.1
2/1/23 - 1800 61.6 52.8 27 24.0 0.00 53.8 47.3 0.5 ESE | 114 3.2 265 -78 0.7 94.5 8.1
2/1/23 - 1700 67.1 61.4 17 18.6 0.00 53.2 47.3 2.0 NNE | 18 10.9 264 -20 4.4 99.1 8.1
2/1/23 - 1600 69.4 66.9 13 15.3 0.00 53.1 47.1 2.9 N | 358 10.0 262 124 6.2 98.9 8.2
2/1/23 - 1500 70.0 68.6 13 15.7 0.00 52.7 47.0 2.5 N | 358 11.7 261 252 6.3 97.6 8.2
2/1/23 - 1400 69.6 68.1 13 15.8 0.00 53.5 47.0 3.6 N | 4 10.9 261 343 4.4 91.7 8.2
2/1/23 - 1300 69.1 66.8 13 14.9 0.00 51.7 46.9 3.6 N | 11 11.2 261 394 5.4 81.2 8.2
2/1/23 - 1200 67.9 65.7 12 13.2 0.00 51.9 46.9 3.6 N | 10 14.4 262 392 6.3 71.3 8.2
2/1/23 - 1100 66.0 63.4 13 12.5 0.00 51.1 46.9 3.3 N | 9 10.7 262 341 4.5 61.9 8.2
2/1/23 - 1000 63.6 60.0 15 13.2 0.00 51.6 47.0 2.2 N | 7 11.8 262 248 4.1 55.8 8.2
2/1/23 - 0900 60.3 53.1 16 11.8 0.00 52.4 47.0 1.5 WSW | 239 7.0 262 118 5.6 52.8 8.2
2/1/23 - 0800 53.2 48.9 18 9.3 0.00 51.8 47.0 1.2 S | 183 5.1 264 -42 4.2 51.3 8.2
2/1/23 - 0700 51.2 42.5 18 7.7 0.00 52.7 47.1 1.0 NNW | 328 5.9 264 -73 5.7 51.1 8.2
2/1/23 - 0600 47.7 42.6 24 10.3 0.00 51.4 47.1 1.3 S | 173 5.2 265 -71 5.2 52.3 8.2
2/1/23 - 0500 51.1 45.9 17 6.5 0.00 53.9 47.2 2.5 SSW | 210 6.8 264 -78 4.2 54.0 8.2
2/1/23 - 0400 50.9 48.4 16 5.6 0.00 53.0 47.3 1.8 N | 352 8.3 264 -79 3.5 54.1 8.2
2/1/23 - 0300 48.7 46.5 17 5.6 0.00 53.1 47.3 0.6 WNW | 287 3.4 264 -77 2.7 55.2 8.2
2/1/23 - 0200 49.6 47.7 17 5.6 0.00 53.4 47.4 0.9 NNW | 339 5.7 264 -81 3.7 56.7 8.2
2/1/23 - 0100 51.4 49.0 15 4.5 0.00 53.6 47.4 1.0 N | 350 7.4 264 -82 3.1 58.2 8.2
2/1/23 - 0000 51.8 50.4 14 3.8 0.00 53.7 47.5 1.0 NNW | 348 5.9 264 -82 2.8 59.1 8.2
Max 75.8 73.4 93 51.4 0.03 58.3 47.5 7.6 - 15.2 475 418 10.0 115.5 8.2
Avg 56.4 53.1 43 28.8 0.00 54.7 46.9 1.6 - 5.7 270 61 3.2 74.7 7.9
Min 34.3 33.2 12 3.8 0.00 51.1 46.1 0.0 - 0.7 261 -86 0.0 49.1 7.5
Total - - - - 0.03 - - - - - - - - - -